Plan B — ZCND5 — position and weather

sailwx.info

Track history (hours):
 
Tides and Currents Weather Stations Pressure Air Temp Water Temp Dewpoint Dewpoint Depression Visibility Wind Speed Wind Dir Waves Ship Positions

Plan B

Last reported at 2015-Aug-04 21:33 UTC. Time now 2015-Aug-04 22:00 UTC.
Position N 44°18' E 009°13'.

Length 49 m; draft 3.2 m.

Type: Pleasure craft. MMSI: 319075000.

Date/timePositionNaut miles runAvg speedWind from/ knotsBaromVisibWave heightAir tempDewpointWater temp
2015-Aug-04 21:33N 44°18' E 009°13'0 0.0
2015-Aug-04 20:32N 44°18' E 009°13'0 0.0
2015-Aug-04 19:33N 44°18' E 009°13'0 0.0
2015-Aug-04 18:33N 44°18' E 009°13'0 0.0
2015-Aug-04 17:33N 44°18' E 009°13'0 0.0
2015-Aug-04 16:32N 44°18' E 009°13'0 0.0
2015-Aug-04 15:33N 44°18' E 009°13'0 0.0
2015-Aug-04 14:33N 44°18' E 009°13'0 0.0
2015-Aug-04 13:33N 44°18' E 009°13'0 0.0
2015-Aug-04 12:33N 44°18' E 009°13'0 0.0
2015-Aug-04 11:33N 44°18' E 009°13'0 0.0
2015-Aug-04 10:33N 44°18' E 009°13'0 0.0
2015-Aug-04 09:33N 44°18' E 009°13'0 0.0
2015-Aug-04 08:33N 44°18' E 009°13'0 0.0
2015-Aug-04 07:33N 44°18' E 009°13'5 5.2
2015-Aug-04 06:33N 44°13' E 009°12'1212.2
2015-Aug-04 05:33N 44°02' E 009°07'1212.0
2015-Aug-04 04:33N 43°50' E 009°02'1211.6
2015-Aug-04 03:33N 43°39' E 008°58'1211.8
2015-Aug-04 02:33N 43°28' E 008°53'1212.0
2015-Aug-04 01:33N 43°16' E 008°48'1312.1
2015-Aug-04 00:29N 43°04' E 008°44'57 4.4
2015-Aug-03 11:30N 42°08' E 008°29'1111.6
2015-Aug-03 10:31N 41°57' E 008°33'69 1.5
2015-Aug-01 11:34N 41°04' E 009°32'37 6.1
2015-Aug-01 05:31N 41°02' E 010°21'12 9.7
2015-Aug-01 04:17N 41°01' E 010°37'810.0
2015-Aug-01 03:27N 41°01' E 010°48'7310.6
2015-Jul-31 20:33N 40°58' E 012°25'1110.9
2015-Jul-31 19:33N 40°58' E 012°40'1110.8
2015-Jul-31 18:33N 40°57' E 012°54'25 1.6
2015-Jul-31 03:07N 40°44' E 013°22'611.2
2015-Jul-31 02:33N 40°42' E 013°29'1111.2
2015-Jul-31 01:33N 40°40' E 013°44'1111.2
2015-Jul-31 00:34N 40°37' E 013°58'1211.5
2015-Jul-30 23:33N 40°34' E 014°13'12 1.6
2015-Jul-30 16:08N 40°36' E 014°29'4 7.2
2015-Jul-30 15:33N 40°34' E 014°24'7 1.1
2015-Jul-30 09:15N 40°32' E 014°15'0 0.0
2015-Jul-30 08:30N 40°32' E 014°15'0 0.0
2015-Jul-30 07:30N 40°32' E 014°15'0 0.0
2015-Jul-30 06:24N 40°32' E 014°15'4 0.2
2015-Jul-29 09:22N 40°29' E 014°18'117 3.4
2015-Jul-27 23:12N 38°38' E 015°04'11 0.3
2015-Jul-26 06:32N 38°28' E 014°59'1111.1
2015-Jul-26 05:33N 38°37' E 015°05'  
Track history (hours):
 
Tides and Currents Weather Stations Pressure Air Temp Water Temp Dewpoint Dewpoint Depression Visibility Wind Speed Wind Dir Waves Ship Positions

Plan B

Last reported at 2015-Aug-04 21:33 UTC. Time now 2015-Aug-04 22:00 UTC.
Position N 44°18' E 009°13'.

Length 49 m; draft 3.2 m.

Type: Pleasure craft. MMSI: 319075000.

Date/timePositionNaut miles runAvg speedWind from/ knotsBaromVisibWave heightAir tempDewpointWater temp
2015-Aug-04 21:33N 44°18' E 009°13'0 0.0
2015-Aug-04 20:32N 44°18' E 009°13'0 0.0
2015-Aug-04 19:33N 44°18' E 009°13'0 0.0
2015-Aug-04 18:33N 44°18' E 009°13'0 0.0
2015-Aug-04 17:33N 44°18' E 009°13'0 0.0
2015-Aug-04 16:32N 44°18' E 009°13'0 0.0
2015-Aug-04 15:33N 44°18' E 009°13'0 0.0
2015-Aug-04 14:33N 44°18' E 009°13'0 0.0
2015-Aug-04 13:33N 44°18' E 009°13'0 0.0
2015-Aug-04 12:33N 44°18' E 009°13'0 0.0
2015-Aug-04 11:33N 44°18' E 009°13'0 0.0
2015-Aug-04 10:33N 44°18' E 009°13'0 0.0
2015-Aug-04 09:33N 44°18' E 009°13'0 0.0
2015-Aug-04 08:33N 44°18' E 009°13'0 0.0
2015-Aug-04 07:33N 44°18' E 009°13'5 5.2
2015-Aug-04 06:33N 44°13' E 009°12'1212.2
2015-Aug-04 05:33N 44°02' E 009°07'1212.0
2015-Aug-04 04:33N 43°50' E 009°02'1211.6
2015-Aug-04 03:33N 43°39' E 008°58'1211.8
2015-Aug-04 02:33N 43°28' E 008°53'1212.0
2015-Aug-04 01:33N 43°16' E 008°48'1312.1
2015-Aug-04 00:29N 43°04' E 008°44'57 4.4
2015-Aug-03 11:30N 42°08' E 008°29'1111.6
2015-Aug-03 10:31N 41°57' E 008°33'69 1.5
2015-Aug-01 11:34N 41°04' E 009°32'37 6.1
2015-Aug-01 05:31N 41°02' E 010°21'12 9.7
2015-Aug-01 04:17N 41°01' E 010°37'810.0
2015-Aug-01 03:27N 41°01' E 010°48'7310.6
2015-Jul-31 20:33N 40°58' E 012°25'1110.9
2015-Jul-31 19:33N 40°58' E 012°40'1110.8
2015-Jul-31 18:33N 40°57' E 012°54'25 1.6
2015-Jul-31 03:07N 40°44' E 013°22'611.2
2015-Jul-31 02:33N 40°42' E 013°29'1111.2
2015-Jul-31 01:33N 40°40' E 013°44'1111.2
2015-Jul-31 00:34N 40°37' E 013°58'1211.5
2015-Jul-30 23:33N 40°34' E 014°13'12 1.6
2015-Jul-30 16:08N 40°36' E 014°29'4 7.2
2015-Jul-30 15:33N 40°34' E 014°24'7 1.1
2015-Jul-30 09:15N 40°32' E 014°15'0 0.0
2015-Jul-30 08:30N 40°32' E 014°15'0 0.0
2015-Jul-30 07:30N 40°32' E 014°15'0 0.0
2015-Jul-30 06:24N 40°32' E 014°15'4 0.2
2015-Jul-29 09:22N 40°29' E 014°18'117 3.4
2015-Jul-27 23:12N 38°38' E 015°04'11 0.3
2015-Jul-26 06:32N 38°28' E 014°59'1111.1
2015-Jul-26 05:33N 38°37' E 015°05'  

Dump ship's entire track history